sensor_id;sensor_type;location;lat;lon;timestamp;pressure;altitude;pressure_sealevel;temperature;humidity
3464;BME280;3551;41.578;24.706;2023-05-25T04:45:40;91300.75;;;16.38;74.09
3464;BME280;3551;41.578;24.706;2023-05-25T04:48:07;91298.94;;;16.79;72.04
3464;BME280;3551;41.578;24.706;2023-05-25T04:50:34;91293.78;;;16.85;72.64
3464;BME280;3551;41.578;24.706;2023-05-25T04:53:01;91299.88;;;17.02;72.28
3464;BME280;3551;41.578;24.706;2023-05-25T04:55:28;91298.53;;;17.22;70.90
3464;BME280;3551;41.578;24.706;2023-05-25T04:57:55;91298.81;;;17.53;69.31
3464;BME280;3551;41.578;24.706;2023-05-25T05:00:21;91306.66;;;17.76;67.61
3464;BME280;3551;41.578;24.706;2023-05-25T05:02:49;91298.84;;;17.91;67.27
3464;BME280;3551;41.578;24.706;2023-05-25T05:05:16;91298.63;;;17.98;66.11
3464;BME280;3551;41.578;24.706;2023-05-25T05:07:43;91299.16;;;18.18;66.29
3464;BME280;3551;41.578;24.706;2023-05-25T05:10:10;91303.31;;;18.70;65.93
3464;BME280;3551;41.578;24.706;2023-05-25T05:12:37;91294.84;;;19.02;63.53
3464;BME280;3551;41.578;24.706;2023-05-25T05:15:04;91300.94;;;19.15;63.61
3464;BME280;3551;41.578;24.706;2023-05-25T05:17:31;91301.88;;;19.21;64.07
3464;BME280;3551;41.578;24.706;2023-05-25T05:19:59;91299.97;;;19.43;61.00
3464;BME280;3551;41.578;24.706;2023-05-25T05:22:26;91292.09;;;19.24;61.61
3464;BME280;3551;41.578;24.706;2023-05-25T05:24:53;91294.13;;;19.32;62.14
3464;BME280;3551;41.578;24.706;2023-05-25T05:27:20;91304.84;;;19.36;61.97
3464;BME280;3551;41.578;24.706;2023-05-25T05:29:47;91294.25;;;19.50;62.41
3464;BME280;3551;41.578;24.706;2023-05-25T05:32:15;91295.69;;;19.95;61.33
3464;BME280;3551;41.578;24.706;2023-05-25T05:34:43;91288.59;;;19.57;61.79
3464;BME280;3551;41.578;24.706;2023-05-25T05:37:14;91286.75;;;19.85;62.73
3464;BME280;3551;41.578;24.706;2023-05-25T05:39:40;91279.88;;;20.42;59.79
3464;BME280;3551;41.578;24.706;2023-05-25T05:42:08;91290.78;;;20.78;58.69
3464;BME280;3551;41.578;24.706;2023-05-25T05:44:38;91286.00;;;21.10;57.32
3464;BME280;3551;41.578;24.706;2023-05-25T05:47:05;91283.88;;;21.14;57.86
3464;BME280;3551;41.578;24.706;2023-05-25T05:49:32;91283.72;;;20.99;58.49
3464;BME280;3551;41.578;24.706;2023-05-25T05:51:58;91282.78;;;20.93;58.56
3464;BME280;3551;41.578;24.706;2023-05-25T05:54:27;91289.59;;;20.98;58.01
3464;BME280;3551;41.578;24.706;2023-05-25T05:56:53;91283.13;;;21.13;57.52
3464;BME280;3551;41.578;24.706;2023-05-25T05:59:20;91285.06;;;21.31;57.12
3464;BME280;3551;41.578;24.706;2023-05-25T06:01:47;91277.38;;;21.11;57.47
3464;BME280;3551;41.578;24.706;2023-05-25T06:04:17;91280.38;;;21.31;57.84
3464;BME280;3551;41.578;24.706;2023-05-25T06:06:44;91276.56;;;21.65;56.69
3464;BME280;3551;41.578;24.706;2023-05-25T06:09:11;91283.75;;;21.77;56.88
3464;BME280;3551;41.578;24.706;2023-05-25T06:11:39;91275.94;;;21.70;56.52
3464;BME280;3551;41.578;24.706;2023-05-25T06:14:06;91274.53;;;21.84;56.68
3464;BME280;3551;41.578;24.706;2023-05-25T06:16:32;91277.72;;;22.24;55.86
3464;BME280;3551;41.578;24.706;2023-05-25T06:19:00;91281.81;;;22.53;53.97
3464;BME280;3551;41.578;24.706;2023-05-25T06:21:27;91275.06;;;22.95;52.99
3464;BME280;3551;41.578;24.706;2023-05-25T06:23:54;91272.53;;;23.07;53.39
3464;BME280;3551;41.578;24.706;2023-05-25T06:26:21;91281.19;;;23.05;52.61
3464;BME280;3551;41.578;24.706;2023-05-25T06:28:51;91276.53;;;23.20;51.82
3464;BME280;3551;41.578;24.706;2023-05-25T06:31:18;91270.84;;;23.47;50.07
3464;BME280;3551;41.578;24.706;2023-05-25T06:33:45;91275.56;;;23.62;50.92
3464;BME280;3551;41.578;24.706;2023-05-25T06:36:11;91277.16;;;23.83;51.92
3464;BME280;3551;41.578;24.706;2023-05-25T06:38:39;91274.91;;;24.11;50.95
3464;BME280;3551;41.578;24.706;2023-05-25T06:41:06;91279.13;;;24.26;48.81
3464;BME280;3551;41.578;24.706;2023-05-25T06:43:33;91273.63;;;24.41;48.06
3464;BME280;3551;41.578;24.706;2023-05-25T06:46:02;91266.88;;;24.56;47.03
3464;BME280;3551;41.578;24.706;2023-05-25T06:48:28;91270.47;;;24.62;47.84
3464;BME280;3551;41.578;24.706;2023-05-25T06:50:55;91263.69;;;24.78;47.19
3464;BME280;3551;41.578;24.706;2023-05-25T06:53:22;91268.38;;;24.92;46.88
3464;BME280;3551;41.578;24.706;2023-05-25T06:55:48;91275.97;;;24.83;46.42
3464;BME280;3551;41.578;24.706;2023-05-25T06:58:15;91274.44;;;23.83;46.80
3464;BME280;3551;41.578;24.706;2023-05-25T07:00:42;91269.75;;;23.30;49.08
3464;BME280;3551;41.578;24.706;2023-05-25T07:03:10;91264.75;;;23.14;50.48
3464;BME280;3551;41.578;24.706;2023-05-25T07:05:37;91275.81;;;22.96;50.98
3464;BME280;3551;41.578;24.706;2023-05-25T07:08:04;91267.19;;;22.41;53.18
3464;BME280;3551;41.578;24.706;2023-05-25T07:10:30;91263.91;;;22.61;48.63
3464;BME280;3551;41.578;24.706;2023-05-25T07:12:57;91267.75;;;22.78;46.93
3464;BME280;3551;41.578;24.706;2023-05-25T07:15:24;91262.91;;;23.35;47.73
3464;BME280;3551;41.578;24.706;2023-05-25T07:17:50;91256.25;;;23.80;47.15
3464;BME280;3551;41.578;24.706;2023-05-25T07:20:18;91268.69;;;24.10;45.34
3464;BME280;3551;41.578;24.706;2023-05-25T07:22:46;91263.16;;;23.61;45.30
3464;BME280;3551;41.578;24.706;2023-05-25T07:25:12;91262.78;;;23.29;47.64
3464;BME280;3551;41.578;24.706;2023-05-25T07:27:39;91265.50;;;23.15;47.37
3464;BME280;3551;41.578;24.706;2023-05-25T07:30:07;91254.56;;;23.15;44.23
3464;BME280;3551;41.578;24.706;2023-05-25T07:32:34;91270.09;;;23.62;42.20
3464;BME280;3551;41.578;24.706;2023-05-25T07:35:02;91254.94;;;24.19;43.01
3464;BME280;3551;41.578;24.706;2023-05-25T07:37:30;91261.00;;;24.98;40.46
3464;BME280;3551;41.578;24.706;2023-05-25T07:39:57;91265.22;;;25.19;40.64
3464;BME280;3551;41.578;24.706;2023-05-25T07:42:24;91266.13;;;24.06;38.71
3464;BME280;3551;41.578;24.706;2023-05-25T07:44:57;91271.88;;;24.23;40.21
3464;BME280;3551;41.578;24.706;2023-05-25T07:47:24;91261.69;;;24.24;39.76
3464;BME280;3551;41.578;24.706;2023-05-25T07:49:51;91267.66;;;24.07;40.27
3464;BME280;3551;41.578;24.706;2023-05-25T07:52:18;91260.75;;;24.61;40.52
3464;BME280;3551;41.578;24.706;2023-05-25T07:54:46;91262.16;;;24.92;40.75
3464;BME280;3551;41.578;24.706;2023-05-25T07:57:12;91268.31;;;25.07;39.38
3464;BME280;3551;41.578;24.706;2023-05-25T07:59:39;91267.63;;;24.92;38.43
3464;BME280;3551;41.578;24.706;2023-05-25T08:02:06;91261.81;;;24.70;38.37
3464;BME280;3551;41.578;24.706;2023-05-25T08:04:32;91257.34;;;24.32;38.20
3464;BME280;3551;41.578;24.706;2023-05-25T08:06:59;91265.38;;;24.90;38.37
3464;BME280;3551;41.578;24.706;2023-05-25T08:09:27;91264.50;;;25.45;38.58
3464;BME280;3551;41.578;24.706;2023-05-25T08:11:56;91263.66;;;24.58;37.73
3464;BME280;3551;41.578;24.706;2023-05-25T08:14:24;91258.19;;;24.58;38.12
3464;BME280;3551;41.578;24.706;2023-05-25T08:16:50;91253.91;;;24.72;38.91
3464;BME280;3551;41.578;24.706;2023-05-25T08:19:17;91248.44;;;24.72;38.86
3464;BME280;3551;41.578;24.706;2023-05-25T08:21:44;91258.97;;;24.24;39.31
3464;BME280;3551;41.578;24.706;2023-05-25T08:24:10;91248.47;;;24.37;39.49
3464;BME280;3551;41.578;24.706;2023-05-25T08:26:37;91255.53;;;24.98;38.95
3464;BME280;3551;41.578;24.706;2023-05-25T08:29:06;91256.41;;;24.90;35.82
3464;BME280;3551;41.578;24.706;2023-05-25T08:31:33;91256.03;;;25.23;38.28
3464;BME280;3551;41.578;24.706;2023-05-25T08:34:01;91251.31;;;25.69;37.12
3464;BME280;3551;41.578;24.706;2023-05-25T08:36:28;91249.88;;;25.73;35.43
3464;BME280;3551;41.578;24.706;2023-05-25T08:38:54;91246.47;;;24.72;37.91
3464;BME280;3551;41.578;24.706;2023-05-25T08:41:21;91252.94;;;24.05;41.04
3464;BME280;3551;41.578;24.706;2023-05-25T08:43:48;91262.13;;;23.73;40.82
3464;BME280;3551;41.578;24.706;2023-05-25T08:46:16;91262.00;;;24.11;38.00
3464;BME280;3551;41.578;24.706;2023-05-25T08:48:49;91255.88;;;24.01;39.36
3464;BME280;3551;41.578;24.706;2023-05-25T08:51:17;91256.47;;;24.40;41.19
3464;BME280;3551;41.578;24.706;2023-05-25T08:53:44;91266.94;;;24.97;37.28
3464;BME280;3551;41.578;24.706;2023-05-25T08:56:12;91267.00;;;24.13;37.01
3464;BME280;3551;41.578;24.706;2023-05-25T08:58:41;91266.13;;;24.06;37.76
3464;BME280;3551;41.578;24.706;2023-05-25T09:01:11;91261.09;;;24.34;43.03
3464;BME280;3551;41.578;24.706;2023-05-25T09:03:40;91269.38;;;23.76;44.83
3464;BME280;3551;41.578;24.706;2023-05-25T09:06:14;91261.72;;;23.12;47.05
3464;BME280;3551;41.578;24.706;2023-05-25T09:08:41;91264.44;;;23.12;45.69
3464;BME280;3551;41.578;24.706;2023-05-25T09:11:08;91280.50;;;23.34;46.83
3464;BME280;3551;41.578;24.706;2023-05-25T09:13:38;91279.81;;;23.24;46.11
3464;BME280;3551;41.578;24.706;2023-05-25T09:16:05;91285.38;;;22.02;48.13
3464;BME280;3551;41.578;24.706;2023-05-25T09:18:33;91288.03;;;21.69;49.22
3464;BME280;3551;41.578;24.706;2023-05-25T09:21:01;91284.41;;;21.63;50.21
3464;BME280;3551;41.578;24.706;2023-05-25T09:23:28;91290.47;;;21.67;50.47
3464;BME280;3551;41.578;24.706;2023-05-25T09:25:55;91286.94;;;21.85;49.01
3464;BME280;3551;41.578;24.706;2023-05-25T09:28:23;91286.53;;;21.68;49.72
3464;BME280;3551;41.578;24.706;2023-05-25T09:30:49;91284.72;;;21.65;49.23
3464;BME280;3551;41.578;24.706;2023-05-25T09:33:16;91281.00;;;21.26;49.89
3464;BME280;3551;41.578;24.706;2023-05-25T09:35:44;91282.34;;;21.31;50.86
3464;BME280;3551;41.578;24.706;2023-05-25T09:38:13;91282.56;;;21.78;49.57
3464;BME280;3551;41.578;24.706;2023-05-25T09:40:40;91284.66;;;21.83;49.63
3464;BME280;3551;41.578;24.706;2023-05-25T09:43:07;91274.16;;;21.58;48.96
3464;BME280;3551;41.578;24.706;2023-05-25T09:45:35;91283.84;;;21.59;49.02
3464;BME280;3551;41.578;24.706;2023-05-25T09:48:03;91269.63;;;21.55;48.93
3464;BME280;3551;41.578;24.706;2023-05-25T09:50:36;91271.69;;;21.69;47.85
3464;BME280;3551;41.578;24.706;2023-05-25T09:53:03;91274.72;;;21.71;48.08
3464;BME280;3551;41.578;24.706;2023-05-25T09:55:34;91269.47;;;22.10;48.76
3464;BME280;3551;41.578;24.706;2023-05-25T09:58:02;91273.56;;;22.38;47.49
3464;BME280;3551;41.578;24.706;2023-05-25T10:00:29;91268.16;;;22.29;46.98
3464;BME280;3551;41.578;24.706;2023-05-25T10:02:55;91276.50;;;22.58;45.28
3464;BME280;3551;41.578;24.706;2023-05-25T10:05:22;91268.81;;;22.24;43.40
3464;BME280;3551;41.578;24.706;2023-05-25T10:07:49;91262.28;;;21.98;45.84
3464;BME280;3551;41.578;24.706;2023-05-25T10:10:17;91255.84;;;21.59;46.43
3464;BME280;3551;41.578;24.706;2023-05-25T10:12:47;91259.16;;;21.63;46.72
3464;BME280;3551;41.578;24.706;2023-05-25T10:15:27;91256.97;;;21.85;47.22
3464;BME280;3551;41.578;24.706;2023-05-25T10:17:54;91251.28;;;22.16;46.70
3464;BME280;3551;41.578;24.706;2023-05-25T10:20:23;91257.56;;;22.55;46.52
3464;BME280;3551;41.578;24.706;2023-05-25T10:22:55;91249.09;;;23.00;46.77
3464;BME280;3551;41.578;24.706;2023-05-25T10:25:26;91253.22;;;22.95;44.69
3464;BME280;3551;41.578;24.706;2023-05-25T10:27:56;91249.19;;;22.67;45.75
3464;BME280;3551;41.578;24.706;2023-05-25T10:30:24;91237.16;;;22.26;47.01
3464;BME280;3551;41.578;24.706;2023-05-25T10:32:52;91238.50;;;22.55;44.66
3464;BME280;3551;41.578;24.706;2023-05-25T10:35:19;91235.47;;;23.15;44.46
3464;BME280;3551;41.578;24.706;2023-05-25T10:37:48;91250.53;;;22.72;45.83
3464;BME280;3551;41.578;24.706;2023-05-25T10:40:16;91259.09;;;21.90;47.59
3464;BME280;3551;41.578;24.706;2023-05-25T10:42:44;91246.84;;;21.25;51.17
3464;BME280;3551;41.578;24.706;2023-05-25T10:45:12;91262.56;;;20.94;52.60
3464;BME280;3551;41.578;24.706;2023-05-25T10:47:39;91252.00;;;21.14;53.22
3464;BME280;3551;41.578;24.706;2023-05-25T10:50:17;91254.72;;;21.33;51.98
3464;BME280;3551;41.578;24.706;2023-05-25T10:52:47;91257.56;;;21.29;51.86
3464;BME280;3551;41.578;24.706;2023-05-25T10:55:25;91258.31;;;20.93;54.14
3464;BME280;3551;41.578;24.706;2023-05-25T10:58:08;91260.78;;;21.27;52.49
3464;BME280;3551;41.578;24.706;2023-05-25T11:00:37;91266.50;;;21.11;51.64
3464;BME280;3551;41.578;24.706;2023-05-25T11:03:04;91263.16;;;21.25;51.04
3464;BME280;3551;41.578;24.706;2023-05-25T11:05:35;91259.16;;;21.63;51.37
3464;BME280;3551;41.578;24.706;2023-05-25T11:08:05;91251.75;;;21.63;51.09
3464;BME280;3551;41.578;24.706;2023-05-25T11:10:51;91251.44;;;21.70;50.87
3464;BME280;3551;41.578;24.706;2023-05-25T11:13:31;91248.91;;;22.09;52.39
3464;BME280;3551;41.578;24.706;2023-05-25T11:16:16;91236.31;;;22.11;52.05
3464;BME280;3551;41.578;24.706;2023-05-25T11:18:48;91248.09;;;22.17;52.21
3464;BME280;3551;41.578;24.706;2023-05-25T11:21:20;91254.03;;;21.65;53.21
3464;BME280;3551;41.578;24.706;2023-05-25T11:23:53;91243.66;;;21.36;54.41
3464;BME280;3551;41.578;24.706;2023-05-25T11:26:22;91243.19;;;21.38;53.89
3464;BME280;3551;41.578;24.706;2023-05-25T11:28:50;91237.19;;;20.88;53.69
3464;BME280;3551;41.578;24.706;2023-05-25T11:31:26;91236.13;;;21.04;54.24
3464;BME280;3551;41.578;24.706;2023-05-25T11:33:54;91230.84;;;20.73;55.09
3464;BME280;3551;41.578;24.706;2023-05-25T11:36:24;91231.16;;;20.75;55.89
3464;BME280;3551;41.578;24.706;2023-05-25T11:38:51;91232.97;;;20.60;56.97
3464;BME280;3551;41.578;24.706;2023-05-25T11:41:18;91239.41;;;19.86;61.03
3464;BME280;3551;41.578;24.706;2023-05-25T11:43:46;91237.34;;;19.90;62.62
3464;BME280;3551;41.578;24.706;2023-05-25T11:46:13;91237.84;;;19.76;63.71
3464;BME280;3551;41.578;24.706;2023-05-25T11:48:48;91239.47;;;20.04;62.58
3464;BME280;3551;41.578;24.706;2023-05-25T11:51:16;91240.47;;;19.89;62.77
3464;BME280;3551;41.578;24.706;2023-05-25T11:53:43;91239.34;;;20.17;61.88
3464;BME280;3551;41.578;24.706;2023-05-25T11:56:11;91247.25;;;20.33;61.18
3464;BME280;3551;41.578;24.706;2023-05-25T11:58:41;91245.00;;;20.41;61.18
3464;BME280;3551;41.578;24.706;2023-05-25T12:01:15;91241.56;;;20.58;61.88
3464;BME280;3551;41.578;24.706;2023-05-25T12:03:44;91243.97;;;20.56;59.22
3464;BME280;3551;41.578;24.706;2023-05-25T12:06:23;91245.75;;;20.41;60.12
3464;BME280;3551;41.578;24.706;2023-05-25T12:08:50;91236.75;;;20.62;60.16
3464;BME280;3551;41.578;24.706;2023-05-25T12:11:17;91231.47;;;20.77;59.57
3464;BME280;3551;41.578;24.706;2023-05-25T12:13:44;91245.03;;;20.68;60.50
3464;BME280;3551;41.578;24.706;2023-05-25T12:16:11;91230.41;;;20.56;61.91
3464;BME280;3551;41.578;24.706;2023-05-25T12:18:38;91229.34;;;20.54;62.17
3464;BME280;3551;41.578;24.706;2023-05-25T12:21:06;91221.47;;;20.56;61.46
3464;BME280;3551;41.578;24.706;2023-05-25T12:23:34;91221.94;;;20.63;61.39
3464;BME280;3551;41.578;24.706;2023-05-25T12:26:05;91225.56;;;20.88;59.98
3464;BME280;3551;41.578;24.706;2023-05-25T12:28:38;91231.13;;;20.93;59.54
3464;BME280;3551;41.578;24.706;2023-05-25T12:31:20;91229.19;;;20.94;59.67
3464;BME280;3551;41.578;24.706;2023-05-25T12:34:00;91237.34;;;20.94;59.84
3464;BME280;3551;41.578;24.706;2023-05-25T12:39:32;91220.25;;;20.84;59.79
3464;BME280;3551;41.578;24.706;2023-05-25T12:42:03;91229.03;;;20.70;60.60
3464;BME280;3551;41.578;24.706;2023-05-25T12:44:36;91221.34;;;20.68;60.69
3464;BME280;3551;41.578;24.706;2023-05-25T12:47:10;91213.94;;;20.42;62.72
3464;BME280;3551;41.578;24.706;2023-05-25T12:49:39;91222.16;;;20.20;63.64
3464;BME280;3551;41.578;24.706;2023-05-25T12:52:07;91214.81;;;20.30;63.00
3464;BME280;3551;41.578;24.706;2023-05-25T12:54:36;91227.19;;;20.31;63.77
3464;BME280;3551;41.578;24.706;2023-05-25T12:57:05;91220.09;;;20.33;63.33
3464;BME280;3551;41.578;24.706;2023-05-25T12:59:32;91221.03;;;20.39;62.34
3464;BME280;3551;41.578;24.706;2023-05-25T13:02:00;91224.78;;;20.33;63.22
3464;BME280;3551;41.578;24.706;2023-05-25T13:04:28;91218.28;;;20.30;63.49
3464;BME280;3551;41.578;24.706;2023-05-25T13:07:01;91212.66;;;20.25;63.04
3464;BME280;3551;41.578;24.706;2023-05-25T13:09:28;91214.38;;;20.31;64.37
3464;BME280;3551;41.578;24.706;2023-05-25T13:11:57;91214.81;;;20.30;63.27
3464;BME280;3551;41.578;24.706;2023-05-25T13:14:25;91208.78;;;20.35;64.30
3464;BME280;3551;41.578;24.706;2023-05-25T13:16:54;91213.31;;;20.47;62.97
3464;BME280;3551;41.578;24.706;2023-05-25T13:19:22;91208.94;;;20.31;64.37
3464;BME280;3551;41.578;24.706;2023-05-25T13:21:49;91219.66;;;20.26;63.79
3464;BME280;3551;41.578;24.706;2023-05-25T13:24:19;91221.41;;;20.19;62.80
3464;BME280;3551;41.578;24.706;2023-05-25T13:26:46;91209.53;;;20.26;62.21
3464;BME280;3551;41.578;24.706;2023-05-25T13:29:21;91213.28;;;20.29;62.27
3464;BME280;3551;41.578;24.706;2023-05-25T13:31:49;91211.91;;;20.24;61.87
3464;BME280;3551;41.578;24.706;2023-05-25T13:34:16;91209.63;;;20.13;62.16
3464;BME280;3551;41.578;24.706;2023-05-25T13:36:43;91209.94;;;20.15;61.99
3464;BME280;3551;41.578;24.706;2023-05-25T13:39:10;91205.13;;;20.19;61.71
3464;BME280;3551;41.578;24.706;2023-05-25T13:41:38;91203.94;;;20.30;61.63
3464;BME280;3551;41.578;24.706;2023-05-25T13:44:08;91201.38;;;20.35;62.33
3464;BME280;3551;41.578;24.706;2023-05-25T13:46:38;91193.53;;;20.46;61.87
3464;BME280;3551;41.578;24.706;2023-05-25T13:49:06;91192.81;;;20.37;61.96
3464;BME280;3551;41.578;24.706;2023-05-25T13:51:33;91187.66;;;20.48;61.46
3464;BME280;3551;41.578;24.706;2023-05-25T13:54:00;91189.91;;;20.49;61.31
3464;BME280;3551;41.578;24.706;2023-05-25T13:56:26;91189.78;;;20.44;62.00
3464;BME280;3551;41.578;24.706;2023-05-25T13:58:53;91188.88;;;20.47;62.19
3464;BME280;3551;41.578;24.706;2023-05-25T14:01:20;91191.91;;;20.49;61.85
3464;BME280;3551;41.578;24.706;2023-05-25T14:03:48;91195.50;;;20.55;61.82
3464;BME280;3551;41.578;24.706;2023-05-25T14:06:15;91200.78;;;20.58;61.69
3464;BME280;3551;41.578;24.706;2023-05-25T14:08:41;91203.50;;;20.49;62.37
3464;BME280;3551;41.578;24.706;2023-05-25T14:11:08;91206.69;;;20.39;62.46
3464;BME280;3551;41.578;24.706;2023-05-25T14:13:35;91208.88;;;20.13;63.59
3464;BME280;3551;41.578;24.706;2023-05-25T14:16:06;91203.66;;;19.88;64.86
3464;BME280;3551;41.578;24.706;2023-05-25T14:18:33;91204.91;;;19.87;65.29
3464;BME280;3551;41.578;24.706;2023-05-25T14:21:02;91204.63;;;20.03;64.77
3464;BME280;3551;41.578;24.706;2023-05-25T14:23:28;91208.13;;;20.21;64.07
3464;BME280;3551;41.578;24.706;2023-05-25T14:25:57;91209.03;;;20.18;64.67
3464;BME280;3551;41.578;24.706;2023-05-25T14:28:24;91195.38;;;20.31;63.39
3464;BME280;3551;41.578;24.706;2023-05-25T14:30:53;91197.00;;;20.38;63.16
3464;BME280;3551;41.578;24.706;2023-05-25T14:33:20;91197.34;;;20.40;63.22
3464;BME280;3551;41.578;24.706;2023-05-25T14:35:46;91190.09;;;20.37;63.43
3464;BME280;3551;41.578;24.706;2023-05-25T14:38:15;91190.81;;;20.46;62.99
3464;BME280;3551;41.578;24.706;2023-05-25T14:40:41;91188.88;;;20.56;63.08
3464;BME280;3551;41.578;24.706;2023-05-25T14:43:14;91184.50;;;20.49;63.86
3464;BME280;3551;41.578;24.706;2023-05-25T14:45:41;91175.75;;;20.63;63.80
3464;BME280;3551;41.578;24.706;2023-05-25T14:48:07;91184.94;;;20.84;62.62
3464;BME280;3551;41.578;24.706;2023-05-25T14:50:36;91185.25;;;20.77;60.65
3464;BME280;3551;41.578;24.706;2023-05-25T14:53:05;91195.06;;;20.65;59.19
3464;BME280;3551;41.578;24.706;2023-05-25T14:55:33;91181.91;;;20.55;60.61
3464;BME280;3551;41.578;24.706;2023-05-25T14:57:59;91184.34;;;20.53;58.31
3464;BME280;3551;41.578;24.706;2023-05-25T15:00:26;91194.31;;;19.80;64.68
3464;BME280;3551;41.578;24.706;2023-05-25T15:02:53;91184.03;;;19.35;64.86
3464;BME280;3551;41.578;24.706;2023-05-25T15:05:20;91191.84;;;19.63;65.75
3464;BME280;3551;41.578;24.706;2023-05-25T15:07:46;91187.63;;;19.62;64.26
3464;BME280;3551;41.578;24.706;2023-05-25T15:10:13;91180.94;;;20.03;63.20
3464;BME280;3551;41.578;24.706;2023-05-25T15:12:41;91182.38;;;20.26;62.69
3464;BME280;3551;41.578;24.706;2023-05-25T15:15:08;91179.50;;;20.39;63.07
3464;BME280;3551;41.578;24.706;2023-05-25T15:17:35;91179.16;;;20.18;62.66
3464;BME280;3551;41.578;24.706;2023-05-25T15:20:02;91192.09;;;19.87;59.92
3464;BME280;3551;41.578;24.706;2023-05-25T15:22:28;91193.47;;;19.30;58.54
3464;BME280;3551;41.578;24.706;2023-05-25T15:24:55;91202.41;;;19.09;59.30
3464;BME280;3551;41.578;24.706;2023-05-25T15:27:22;91206.56;;;19.01;64.61
3464;BME280;3551;41.578;24.706;2023-05-25T15:29:50;91212.28;;;18.94;64.23
3464;BME280;3551;41.578;24.706;2023-05-25T15:32:16;91220.28;;;18.76;65.18
3464;BME280;3551;41.578;24.706;2023-05-25T15:34:43;91222.25;;;18.63;64.23
3464;BME280;3551;41.578;24.706;2023-05-25T15:37:10;91218.94;;;18.46;66.22
3464;BME280;3551;41.578;24.706;2023-05-25T15:39:36;91212.69;;;18.36;66.72
3464;BME280;3551;41.578;24.706;2023-05-25T15:42:05;91226.09;;;18.18;65.98
3464;BME280;3551;41.578;24.706;2023-05-25T15:44:31;91230.09;;;18.14;64.40
3464;BME280;3551;41.578;24.706;2023-05-25T15:47:00;91231.06;;;18.07;64.76
3464;BME280;3551;41.578;24.706;2023-05-25T15:49:27;91245.66;;;18.10;63.29
3464;BME280;3551;41.578;24.706;2023-05-25T15:51:53;91234.72;;;18.13;64.80
3464;BME280;3551;41.578;24.706;2023-05-25T15:54:20;91243.31;;;18.46;64.54
3464;BME280;3551;41.578;24.706;2023-05-25T15:56:46;91252.63;;;18.58;64.81
3464;BME280;3551;41.578;24.706;2023-05-25T15:59:13;91249.31;;;18.75;63.74
3464;BME280;3551;41.578;24.706;2023-05-25T16:01:40;91254.91;;;18.81;65.72
3464;BME280;3551;41.578;24.706;2023-05-25T16:04:08;91265.34;;;18.82;66.26
3464;BME280;3551;41.578;24.706;2023-05-25T16:06:34;91271.47;;;18.83;68.87
3464;BME280;3551;41.578;24.706;2023-05-25T16:09:02;91267.56;;;18.62;64.37
3464;BME280;3551;41.578;24.706;2023-05-25T16:11:29;91266.63;;;18.56;63.80
3464;BME280;3551;41.578;24.706;2023-05-25T16:13:58;91275.53;;;18.31;63.94
3464;BME280;3551;41.578;24.706;2023-05-25T16:16:24;91276.03;;;18.39;65.67
3464;BME280;3551;41.578;24.706;2023-05-25T16:18:51;91271.84;;;18.25;68.07
3464;BME280;3551;41.578;24.706;2023-05-25T16:21:19;91272.63;;;18.26;71.45
3464;BME280;3551;41.578;24.706;2023-05-25T16:23:46;91284.16;;;18.51;69.97
3464;BME280;3551;41.578;24.706;2023-05-25T16:26:13;91275.63;;;18.53;70.96
3464;BME280;3551;41.578;24.706;2023-05-25T16:28:39;91276.31;;;18.66;70.91
3464;BME280;3551;41.578;24.706;2023-05-25T16:31:06;91283.63;;;18.44;74.89
3464;BME280;3551;41.578;24.706;2023-05-25T16:33:33;91278.13;;;18.35;75.10
3464;BME280;3551;41.578;24.706;2023-05-25T16:36:00;91281.28;;;18.21;74.25
3464;BME280;3551;41.578;24.706;2023-05-25T16:38:28;91275.78;;;17.99;74.88
3464;BME280;3551;41.578;24.706;2023-05-25T16:40:55;91274.53;;;17.66;74.14
3464;BME280;3551;41.578;24.706;2023-05-25T16:43:21;91275.47;;;17.72;76.07
3464;BME280;3551;41.578;24.706;2023-05-25T16:45:50;91276.09;;;17.51;76.12
3464;BME280;3551;41.578;24.706;2023-05-25T16:48:16;91274.13;;;17.38;75.71
3464;BME280;3551;41.578;24.706;2023-05-25T16:50:43;91276.41;;;17.27;75.48
3464;BME280;3551;41.578;24.706;2023-05-25T16:53:10;91273.59;;;17.43;75.02
3464;BME280;3551;41.578;24.706;2023-05-25T16:55:38;91277.81;;;17.44;77.05
3464;BME280;3551;41.578;24.706;2023-05-25T16:58:04;91283.91;;;17.61;76.22
3464;BME280;3551;41.578;24.706;2023-05-25T17:00:31;91289.00;;;17.59;75.08
3464;BME280;3551;41.578;24.706;2023-05-25T17:02:58;91290.47;;;17.48;75.87
3464;BME280;3551;41.578;24.706;2023-05-25T17:05:24;91291.34;;;17.44;76.08
3464;BME280;3551;41.578;24.706;2023-05-25T17:07:51;91295.66;;;17.42;76.16
3464;BME280;3551;41.578;24.706;2023-05-25T17:10:17;91301.13;;;17.67;76.27
3464;BME280;3551;41.578;24.706;2023-05-25T17:12:45;91294.66;;;17.77;78.37
3464;BME280;3551;41.578;24.706;2023-05-25T17:15:12;91300.91;;;17.87;77.95
3464;BME280;3551;41.578;24.706;2023-05-25T17:17:40;91300.69;;;17.56;80.08
3464;BME280;3551;41.578;24.706;2023-05-25T17:20:07;91305.13;;;17.63;81.38
3464;BME280;3551;41.578;24.706;2023-05-25T17:22:34;91302.97;;;17.70;82.40
3464;BME280;3551;41.578;24.706;2023-05-25T17:25:01;91306.16;;;17.53;82.38
3464;BME280;3551;41.578;24.706;2023-05-25T17:27:28;91301.19;;;17.51;80.56
3464;BME280;3551;41.578;24.706;2023-05-25T17:29:56;91309.81;;;17.46;81.55
3464;BME280;3551;41.578;24.706;2023-05-25T17:32:23;91304.16;;;17.57;81.85
3464;BME280;3551;41.578;24.706;2023-05-25T17:34:50;91296.47;;;17.68;81.81
3464;BME280;3551;41.578;24.706;2023-05-25T17:37:16;91304.88;;;17.57;84.81
3464;BME280;3551;41.578;24.706;2023-05-25T17:39:43;91295.09;;;17.34;87.39
3464;BME280;3551;41.578;24.706;2023-05-25T17:42:10;91294.91;;;17.41;87.03
3464;BME280;3551;41.578;24.706;2023-05-25T17:44:36;91287.44;;;17.45;85.58
3464;BME280;3551;41.578;24.706;2023-05-25T17:47:07;91285.84;;;17.61;84.57
3464;BME280;3551;41.578;24.706;2023-05-25T17:49:34;91284.97;;;17.51;84.74
3464;BME280;3551;41.578;24.706;2023-05-25T17:52:01;91302.16;;;17.44;85.58
3464;BME280;3551;41.578;24.706;2023-05-25T17:54:27;91297.22;;;17.56;84.54
3464;BME280;3551;41.578;24.706;2023-05-25T17:56:54;91296.53;;;17.52;84.24
3464;BME280;3551;41.578;24.706;2023-05-25T17:59:21;91297.94;;;17.43;84.64
3464;BME280;3551;41.578;24.706;2023-05-25T18:01:48;91300.31;;;17.41;84.52